sensor_id;sensor_type;location;lat;lon;timestamp;P1;durP1;ratioP1;P2;durP2;ratioP2
32198;SDS011;73953;42.656;21.156;2024-01-30T00:02:12;28.60;;;16.27;;
32198;SDS011;73953;42.656;21.156;2024-01-30T00:04:39;30.48;;;18.73;;
32198;SDS011;73953;42.656;21.156;2024-01-30T00:07:06;23.80;;;16.77;;
32198;SDS011;73953;42.656;21.156;2024-01-30T00:09:33;30.90;;;16.73;;
32198;SDS011;73953;42.656;21.156;2024-01-30T00:12:01;24.83;;;15.18;;
32198;SDS011;73953;42.656;21.156;2024-01-30T00:14:28;26.23;;;16.23;;
32198;SDS011;73953;42.656;21.156;2024-01-30T00:16:55;28.65;;;17.02;;
32198;SDS011;73953;42.656;21.156;2024-01-30T00:19:22;25.88;;;14.95;;
32198;SDS011;73953;42.656;21.156;2024-01-30T00:21:49;27.77;;;15.10;;
32198;SDS011;73953;42.656;21.156;2024-01-30T00:24:18;24.45;;;15.02;;
32198;SDS011;73953;42.656;21.156;2024-01-30T00:26:45;27.63;;;16.27;;
32198;SDS011;73953;42.656;21.156;2024-01-30T00:29:12;25.13;;;15.20;;
32198;SDS011;73953;42.656;21.156;2024-01-30T00:31:46;26.25;;;15.50;;
32198;SDS011;73953;42.656;21.156;2024-01-30T00:34:13;27.40;;;16.60;;
32198;SDS011;73953;42.656;21.156;2024-01-30T00:36:40;25.90;;;16.75;;
32198;SDS011;73953;42.656;21.156;2024-01-30T00:39:07;26.80;;;15.63;;
32198;SDS011;73953;42.656;21.156;2024-01-30T00:41:35;27.60;;;16.95;;
32198;SDS011;73953;42.656;21.156;2024-01-30T00:44:02;24.55;;;15.80;;
32198;SDS011;73953;42.656;21.156;2024-01-30T00:46:30;27.08;;;16.15;;
32198;SDS011;73953;42.656;21.156;2024-01-30T00:48:56;23.92;;;15.43;;
32198;SDS011;73953;42.656;21.156;2024-01-30T00:51:24;27.67;;;17.08;;
32198;SDS011;73953;42.656;21.156;2024-01-30T00:53:51;24.08;;;15.35;;
32198;SDS011;73953;42.656;21.156;2024-01-30T00:56:18;24.40;;;15.32;;
32198;SDS011;73953;42.656;21.156;2024-01-30T00:58:46;23.27;;;13.90;;
32198;SDS011;73953;42.656;21.156;2024-01-30T01:01:13;19.33;;;13.60;;
32198;SDS011;73953;42.656;21.156;2024-01-30T01:03:40;24.23;;;16.13;;
32198;SDS011;73953;42.656;21.156;2024-01-30T01:06:08;25.10;;;15.48;;
32198;SDS011;73953;42.656;21.156;2024-01-30T01:08:35;24.90;;;15.23;;
32198;SDS011;73953;42.656;21.156;2024-01-30T01:11:02;24.23;;;15.55;;
32198;SDS011;73953;42.656;21.156;2024-01-30T01:13:30;24.60;;;16.30;;
32198;SDS011;73953;42.656;21.156;2024-01-30T01:15:59;25.83;;;14.73;;
32198;SDS011;73953;42.656;21.156;2024-01-30T01:18:26;23.92;;;15.43;;
32198;SDS011;73953;42.656;21.156;2024-01-30T01:20:54;28.02;;;16.20;;
32198;SDS011;73953;42.656;21.156;2024-01-30T01:23:22;22.80;;;16.70;;
32198;SDS011;73953;42.656;21.156;2024-01-30T01:25:49;24.02;;;15.63;;
32198;SDS011;73953;42.656;21.156;2024-01-30T01:28:16;23.05;;;14.88;;
32198;SDS011;73953;42.656;21.156;2024-01-30T01:30:43;23.60;;;14.57;;
32198;SDS011;73953;42.656;21.156;2024-01-30T01:33:10;24.08;;;14.30;;
32198;SDS011;73953;42.656;21.156;2024-01-30T01:35:37;22.88;;;14.65;;
32198;SDS011;73953;42.656;21.156;2024-01-30T01:38:04;23.83;;;14.93;;
32198;SDS011;73953;42.656;21.156;2024-01-30T01:40:31;24.63;;;15.40;;
32198;SDS011;73953;42.656;21.156;2024-01-30T01:42:58;27.27;;;15.75;;
32198;SDS011;73953;42.656;21.156;2024-01-30T01:45:25;23.27;;;14.23;;
32198;SDS011;73953;42.656;21.156;2024-01-30T01:47:52;20.60;;;13.70;;
32198;SDS011;73953;42.656;21.156;2024-01-30T01:50:20;25.38;;;15.40;;
32198;SDS011;73953;42.656;21.156;2024-01-30T01:52:48;26.00;;;16.00;;
32198;SDS011;73953;42.656;21.156;2024-01-30T01:55:15;26.95;;;16.00;;
32198;SDS011;73953;42.656;21.156;2024-01-30T01:57:44;23.75;;;15.55;;
32198;SDS011;73953;42.656;21.156;2024-01-30T02:00:12;20.33;;;14.70;;
32198;SDS011;73953;42.656;21.156;2024-01-30T02:02:39;20.70;;;13.82;;
32198;SDS011;73953;42.656;21.156;2024-01-30T02:05:06;23.98;;;15.15;;
32198;SDS011;73953;42.656;21.156;2024-01-30T02:07:33;23.38;;;15.25;;
32198;SDS011;73953;42.656;21.156;2024-01-30T02:10:00;24.00;;;16.00;;
32198;SDS011;73953;42.656;21.156;2024-01-30T02:12:27;25.15;;;16.65;;
32198;SDS011;73953;42.656;21.156;2024-01-30T02:14:54;28.70;;;16.58;;
32198;SDS011;73953;42.656;21.156;2024-01-30T02:17:22;28.70;;;17.75;;
32198;SDS011;73953;42.656;21.156;2024-01-30T02:19:50;28.27;;;17.05;;
32198;SDS011;73953;42.656;21.156;2024-01-30T02:22:17;27.48;;;17.48;;
32198;SDS011;73953;42.656;21.156;2024-01-30T02:24:45;33.97;;;19.33;;
32198;SDS011;73953;42.656;21.156;2024-01-30T02:27:12;32.83;;;18.35;;
32198;SDS011;73953;42.656;21.156;2024-01-30T02:29:39;32.33;;;19.15;;
32198;SDS011;73953;42.656;21.156;2024-01-30T02:32:06;27.85;;;16.65;;
32198;SDS011;73953;42.656;21.156;2024-01-30T02:34:33;28.48;;;17.60;;
32198;SDS011;73953;42.656;21.156;2024-01-30T02:37:00;32.13;;;19.02;;
32198;SDS011;73953;42.656;21.156;2024-01-30T02:39:29;32.40;;;21.33;;
32198;SDS011;73953;42.656;21.156;2024-01-30T02:41:56;37.05;;;22.73;;
32198;SDS011;73953;42.656;21.156;2024-01-30T02:44:23;40.08;;;24.52;;
32198;SDS011;73953;42.656;21.156;2024-01-30T02:46:50;34.80;;;22.35;;
32198;SDS011;73953;42.656;21.156;2024-01-30T02:49:18;37.08;;;22.00;;
32198;SDS011;73953;42.656;21.156;2024-01-30T02:51:45;40.08;;;23.60;;
32198;SDS011;73953;42.656;21.156;2024-01-30T02:54:13;36.30;;;22.98;;
32198;SDS011;73953;42.656;21.156;2024-01-30T02:56:40;36.17;;;23.33;;
32198;SDS011;73953;42.656;21.156;2024-01-30T02:59:07;34.50;;;22.10;;
32198;SDS011;73953;42.656;21.156;2024-01-30T03:01:41;35.90;;;22.05;;
32198;SDS011;73953;42.656;21.156;2024-01-30T03:04:08;38.63;;;25.08;;
32198;SDS011;73953;42.656;21.156;2024-01-30T03:06:35;41.15;;;24.90;;
32198;SDS011;73953;42.656;21.156;2024-01-30T03:09:02;37.90;;;24.35;;
32198;SDS011;73953;42.656;21.156;2024-01-30T03:11:31;35.60;;;21.85;;
32198;SDS011;73953;42.656;21.156;2024-01-30T03:13:58;34.63;;;22.30;;
32198;SDS011;73953;42.656;21.156;2024-01-30T03:16:25;34.83;;;21.25;;
32198;SDS011;73953;42.656;21.156;2024-01-30T03:18:52;36.25;;;21.80;;
32198;SDS011;73953;42.656;21.156;2024-01-30T03:21:21;34.47;;;20.92;;
32198;SDS011;73953;42.656;21.156;2024-01-30T03:23:48;36.03;;;20.85;;
32198;SDS011;73953;42.656;21.156;2024-01-30T03:26:15;32.60;;;19.98;;
32198;SDS011;73953;42.656;21.156;2024-01-30T03:28:42;31.27;;;20.48;;
32198;SDS011;73953;42.656;21.156;2024-01-30T03:31:09;30.70;;;20.23;;
32198;SDS011;73953;42.656;21.156;2024-01-30T03:33:36;37.53;;;21.45;;
32198;SDS011;73953;42.656;21.156;2024-01-30T03:36:04;32.83;;;19.90;;
32198;SDS011;73953;42.656;21.156;2024-01-30T03:38:31;36.22;;;21.80;;
32198;SDS011;73953;42.656;21.156;2024-01-30T03:41:18;31.98;;;19.80;;
32198;SDS011;73953;42.656;21.156;2024-01-30T03:43:45;31.42;;;19.92;;
32198;SDS011;73953;42.656;21.156;2024-01-30T03:46:12;30.80;;;18.67;;
32198;SDS011;73953;42.656;21.156;2024-01-30T03:48:39;22.75;;;16.00;;
32198;SDS011;73953;42.656;21.156;2024-01-30T03:51:06;28.20;;;17.08;;
32198;SDS011;73953;42.656;21.156;2024-01-30T03:53:34;26.25;;;16.40;;
32198;SDS011;73953;42.656;21.156;2024-01-30T03:56:01;23.67;;;16.15;;
32198;SDS011;73953;42.656;21.156;2024-01-30T03:58:28;27.38;;;16.90;;
32198;SDS011;73953;42.656;21.156;2024-01-30T04:00:55;26.33;;;16.27;;
32198;SDS011;73953;42.656;21.156;2024-01-30T04:03:24;20.60;;;14.00;;
32198;SDS011;73953;42.656;21.156;2024-01-30T04:05:52;20.98;;;13.25;;
32198;SDS011;73953;42.656;21.156;2024-01-30T04:08:19;23.58;;;14.85;;
32198;SDS011;73953;42.656;21.156;2024-01-30T04:10:46;19.73;;;14.05;;
32198;SDS011;73953;42.656;21.156;2024-01-30T04:13:13;21.42;;;15.10;;
32198;SDS011;73953;42.656;21.156;2024-01-30T04:15:40;21.17;;;13.65;;
32198;SDS011;73953;42.656;21.156;2024-01-30T04:18:07;22.30;;;14.57;;
32198;SDS011;73953;42.656;21.156;2024-01-30T04:20:36;22.10;;;14.90;;
32198;SDS011;73953;42.656;21.156;2024-01-30T04:23:03;21.40;;;14.45;;
32198;SDS011;73953;42.656;21.156;2024-01-30T04:25:30;20.95;;;14.68;;
32198;SDS011;73953;42.656;21.156;2024-01-30T04:27:57;23.13;;;15.25;;
32198;SDS011;73953;42.656;21.156;2024-01-30T04:30:24;24.92;;;15.25;;
32198;SDS011;73953;42.656;21.156;2024-01-30T04:32:51;21.70;;;14.70;;
32198;SDS011;73953;42.656;21.156;2024-01-30T04:35:18;25.23;;;15.45;;
32198;SDS011;73953;42.656;21.156;2024-01-30T04:37:47;26.80;;;17.08;;
32198;SDS011;73953;42.656;21.156;2024-01-30T04:40:14;27.27;;;18.13;;
32198;SDS011;73953;42.656;21.156;2024-01-30T04:42:41;25.02;;;16.80;;
32198;SDS011;73953;42.656;21.156;2024-01-30T04:45:08;27.63;;;17.65;;
32198;SDS011;73953;42.656;21.156;2024-01-30T04:47:35;30.40;;;19.75;;
32198;SDS011;73953;42.656;21.156;2024-01-30T04:50:03;29.92;;;18.17;;
32198;SDS011;73953;42.656;21.156;2024-01-30T04:52:31;30.10;;;18.23;;
32198;SDS011;73953;42.656;21.156;2024-01-30T04:54:59;32.88;;;19.38;;
32198;SDS011;73953;42.656;21.156;2024-01-30T04:57:26;29.13;;;17.05;;
32198;SDS011;73953;42.656;21.156;2024-01-30T04:59:53;26.15;;;16.60;;
32198;SDS011;73953;42.656;21.156;2024-01-30T05:02:20;25.23;;;16.63;;
32198;SDS011;73953;42.656;21.156;2024-01-30T05:04:47;20.25;;;14.48;;
32198;SDS011;73953;42.656;21.156;2024-01-30T05:07:14;21.60;;;14.68;;
32198;SDS011;73953;42.656;21.156;2024-01-30T05:09:41;21.25;;;14.93;;
32198;SDS011;73953;42.656;21.156;2024-01-30T05:12:08;21.08;;;14.38;;
32198;SDS011;73953;42.656;21.156;2024-01-30T05:14:35;22.75;;;15.07;;
32198;SDS011;73953;42.656;21.156;2024-01-30T05:17:02;23.42;;;14.35;;
32198;SDS011;73953;42.656;21.156;2024-01-30T05:19:29;23.15;;;14.02;;
32198;SDS011;73953;42.656;21.156;2024-01-30T05:21:57;19.55;;;12.88;;
32198;SDS011;73953;42.656;21.156;2024-01-30T05:24:24;23.55;;;14.73;;
32198;SDS011;73953;42.656;21.156;2024-01-30T05:26:53;27.85;;;16.65;;
32198;SDS011;73953;42.656;21.156;2024-01-30T05:29:20;28.65;;;17.08;;
32198;SDS011;73953;42.656;21.156;2024-01-30T05:31:47;25.73;;;17.73;;
32198;SDS011;73953;42.656;21.156;2024-01-30T05:34:14;26.45;;;17.20;;
32198;SDS011;73953;42.656;21.156;2024-01-30T05:36:41;24.60;;;16.42;;
32198;SDS011;73953;42.656;21.156;2024-01-30T05:39:08;25.75;;;16.38;;
32198;SDS011;73953;42.656;21.156;2024-01-30T05:41:35;23.83;;;14.48;;
32198;SDS011;73953;42.656;21.156;2024-01-30T05:44:02;28.33;;;17.17;;
32198;SDS011;73953;42.656;21.156;2024-01-30T05:46:29;26.83;;;17.52;;
32198;SDS011;73953;42.656;21.156;2024-01-30T05:48:56;32.20;;;20.25;;
32198;SDS011;73953;42.656;21.156;2024-01-30T05:51:23;50.95;;;28.58;;
32198;SDS011;73953;42.656;21.156;2024-01-30T05:53:51;49.95;;;27.55;;
32198;SDS011;73953;42.656;21.156;2024-01-30T05:56:18;47.90;;;28.77;;
32198;SDS011;73953;42.656;21.156;2024-01-30T05:58:45;57.13;;;29.88;;
32198;SDS011;73953;42.656;21.156;2024-01-30T06:01:12;52.85;;;31.40;;
32198;SDS011;73953;42.656;21.156;2024-01-30T06:03:39;46.05;;;28.15;;
32198;SDS011;73953;42.656;21.156;2024-01-30T06:06:06;40.05;;;23.27;;
32198;SDS011;73953;42.656;21.156;2024-01-30T06:08:33;30.33;;;19.80;;
32198;SDS011;73953;42.656;21.156;2024-01-30T06:11:00;22.98;;;16.10;;
32198;SDS011;73953;42.656;21.156;2024-01-30T06:13:27;33.53;;;21.52;;
32198;SDS011;73953;42.656;21.156;2024-01-30T06:15:54;24.25;;;16.02;;
32198;SDS011;73953;42.656;21.156;2024-01-30T06:18:21;27.20;;;17.23;;
32198;SDS011;73953;42.656;21.156;2024-01-30T06:20:48;25.75;;;16.73;;
32198;SDS011;73953;42.656;21.156;2024-01-30T06:23:16;20.77;;;13.52;;
32198;SDS011;73953;42.656;21.156;2024-01-30T06:25:43;29.65;;;16.67;;
32198;SDS011;73953;42.656;21.156;2024-01-30T06:28:10;29.58;;;18.00;;
32198;SDS011;73953;42.656;21.156;2024-01-30T06:30:37;20.83;;;15.27;;
32198;SDS011;73953;42.656;21.156;2024-01-30T06:33:04;24.58;;;16.00;;
32198;SDS011;73953;42.656;21.156;2024-01-30T06:35:31;23.40;;;15.75;;
32198;SDS011;73953;42.656;21.156;2024-01-30T06:37:58;25.08;;;14.88;;
32198;SDS011;73953;42.656;21.156;2024-01-30T06:40:25;22.75;;;14.20;;
32198;SDS011;73953;42.656;21.156;2024-01-30T06:42:52;21.88;;;14.23;;
32198;SDS011;73953;42.656;21.156;2024-01-30T06:45:19;20.05;;;10.90;;
32198;SDS011;73953;42.656;21.156;2024-01-30T06:47:46;21.10;;;13.52;;
32198;SDS011;73953;42.656;21.156;2024-01-30T06:50:14;54.20;;;31.27;;
32198;SDS011;73953;42.656;21.156;2024-01-30T06:52:43;43.72;;;24.60;;
32198;SDS011;73953;42.656;21.156;2024-01-30T06:55:11;27.63;;;16.58;;
32198;SDS011;73953;42.656;21.156;2024-01-30T06:57:40;27.77;;;15.52;;
32198;SDS011;73953;42.656;21.156;2024-01-30T07:00:07;35.88;;;22.98;;
32198;SDS011;73953;42.656;21.156;2024-01-30T07:02:34;29.20;;;20.70;;
32198;SDS011;73953;42.656;21.156;2024-01-30T07:05:03;26.73;;;16.90;;
32198;SDS011;73953;42.656;21.156;2024-01-30T07:07:31;38.60;;;20.10;;
32198;SDS011;73953;42.656;21.156;2024-01-30T07:10:01;34.53;;;19.17;;
32198;SDS011;73953;42.656;21.156;2024-01-30T07:12:28;27.85;;;15.77;;
32198;SDS011;73953;42.656;21.156;2024-01-30T07:14:57;20.63;;;12.95;;
32198;SDS011;73953;42.656;21.156;2024-01-30T07:17:26;18.95;;;12.95;;
32198;SDS011;73953;42.656;21.156;2024-01-30T07:19:56;15.63;;;10.02;;
32198;SDS011;73953;42.656;21.156;2024-01-30T07:22:23;15.60;;;10.30;;
32198;SDS011;73953;42.656;21.156;2024-01-30T07:24:50;20.58;;;12.90;;
32198;SDS011;73953;42.656;21.156;2024-01-30T07:27:19;17.27;;;11.25;;
32198;SDS011;73953;42.656;21.156;2024-01-30T07:29:46;27.00;;;12.85;;
32198;SDS011;73953;42.656;21.156;2024-01-30T07:32:13;25.70;;;15.52;;
32198;SDS011;73953;42.656;21.156;2024-01-30T07:34:40;24.38;;;14.20;;
32198;SDS011;73953;42.656;21.156;2024-01-30T07:37:24;19.33;;;12.30;;
32198;SDS011;73953;42.656;21.156;2024-01-30T07:39:51;25.15;;;15.07;;
32198;SDS011;73953;42.656;21.156;2024-01-30T07:42:18;20.52;;;13.35;;
32198;SDS011;73953;42.656;21.156;2024-01-30T07:44:45;24.70;;;13.80;;
32198;SDS011;73953;42.656;21.156;2024-01-30T07:47:12;27.13;;;14.60;;
32198;SDS011;73953;42.656;21.156;2024-01-30T07:49:39;21.05;;;12.18;;
32198;SDS011;73953;42.656;21.156;2024-01-30T07:52:06;24.63;;;13.35;;
32198;SDS011;73953;42.656;21.156;2024-01-30T07:54:34;15.18;;;9.88;;
32198;SDS011;73953;42.656;21.156;2024-01-30T07:57:03;13.35;;;7.68;;
32198;SDS011;73953;42.656;21.156;2024-01-30T07:59:30;11.02;;;6.53;;
32198;SDS011;73953;42.656;21.156;2024-01-30T08:01:57;16.48;;;9.65;;
32198;SDS011;73953;42.656;21.156;2024-01-30T08:04:24;15.65;;;9.57;;
32198;SDS011;73953;42.656;21.156;2024-01-30T08:06:52;16.40;;;10.02;;
32198;SDS011;73953;42.656;21.156;2024-01-30T08:09:19;16.92;;;9.98;;
32198;SDS011;73953;42.656;21.156;2024-01-30T08:11:46;12.88;;;6.95;;
32198;SDS011;73953;42.656;21.156;2024-01-30T08:14:13;14.65;;;7.25;;
32198;SDS011;73953;42.656;21.156;2024-01-30T08:16:41;14.52;;;9.02;;
32198;SDS011;73953;42.656;21.156;2024-01-30T08:19:08;10.13;;;6.20;;
32198;SDS011;73953;42.656;21.156;2024-01-30T08:21:35;10.93;;;6.75;;
32198;SDS011;73953;42.656;21.156;2024-01-30T08:24:05;10.75;;;6.47;;
32198;SDS011;73953;42.656;21.156;2024-01-30T08:26:33;9.40;;;6.13;;
32198;SDS011;73953;42.656;21.156;2024-01-30T08:29:03;15.05;;;8.73;;
32198;SDS011;73953;42.656;21.156;2024-01-30T08:31:30;13.95;;;8.25;;
32198;SDS011;73953;42.656;21.156;2024-01-30T08:33:57;12.85;;;8.05;;
32198;SDS011;73953;42.656;21.156;2024-01-30T08:36:25;14.85;;;9.40;;
32198;SDS011;73953;42.656;21.156;2024-01-30T08:38:52;26.05;;;15.27;;
32198;SDS011;73953;42.656;21.156;2024-01-30T08:41:26;12.40;;;7.20;;
32198;SDS011;73953;42.656;21.156;2024-01-30T08:43:53;9.48;;;6.38;;
32198;SDS011;73953;42.656;21.156;2024-01-30T08:46:21;9.15;;;5.88;;
32198;SDS011;73953;42.656;21.156;2024-01-30T08:48:48;14.18;;;9.88;;
32198;SDS011;73953;42.656;21.156;2024-01-30T08:51:15;8.68;;;5.70;;
32198;SDS011;73953;42.656;21.156;2024-01-30T08:53:42;25.48;;;12.77;;
32198;SDS011;73953;42.656;21.156;2024-01-30T08:56:09;11.77;;;7.38;;
32198;SDS011;73953;42.656;21.156;2024-01-30T08:58:37;7.82;;;5.20;;
32198;SDS011;73953;42.656;21.156;2024-01-30T09:01:04;9.57;;;6.35;;
32198;SDS011;73953;42.656;21.156;2024-01-30T09:03:32;15.10;;;9.60;;
32198;SDS011;73953;42.656;21.156;2024-01-30T09:05:59;12.10;;;5.68;;
32198;SDS011;73953;42.656;21.156;2024-01-30T09:08:26;11.18;;;7.40;;
32198;SDS011;73953;42.656;21.156;2024-01-30T09:10:53;15.07;;;8.73;;
32198;SDS011;73953;42.656;21.156;2024-01-30T09:13:21;21.88;;;11.23;;
32198;SDS011;73953;42.656;21.156;2024-01-30T09:15:49;16.15;;;8.88;;
32198;SDS011;73953;42.656;21.156;2024-01-30T09:18:16;22.67;;;12.13;;
32198;SDS011;73953;42.656;21.156;2024-01-30T09:20:43;15.90;;;9.40;;
32198;SDS011;73953;42.656;21.156;2024-01-30T09:23:12;13.98;;;7.95;;
32198;SDS011;73953;42.656;21.156;2024-01-30T09:25:39;17.42;;;10.50;;
32198;SDS011;73953;42.656;21.156;2024-01-30T09:28:06;17.55;;;9.15;;
32198;SDS011;73953;42.656;21.156;2024-01-30T09:30:33;7.65;;;5.40;;
32198;SDS011;73953;42.656;21.156;2024-01-30T09:33:00;27.92;;;15.20;;
32198;SDS011;73953;42.656;21.156;2024-01-30T09:35:27;9.07;;;5.18;;
32198;SDS011;73953;42.656;21.156;2024-01-30T09:37:55;12.32;;;7.65;;
32198;SDS011;73953;42.656;21.156;2024-01-30T09:40:24;23.48;;;12.65;;
32198;SDS011;73953;42.656;21.156;2024-01-30T09:42:51;12.90;;;8.27;;
32198;SDS011;73953;42.656;21.156;2024-01-30T09:45:18;11.55;;;6.97;;
32198;SDS011;73953;42.656;21.156;2024-01-30T09:47:46;10.50;;;6.40;;
32198;SDS011;73953;42.656;21.156;2024-01-30T09:50:13;8.65;;;4.88;;
32198;SDS011;73953;42.656;21.156;2024-01-30T09:52:41;10.45;;;6.43;;
32198;SDS011;73953;42.656;21.156;2024-01-30T09:55:09;19.25;;;10.93;;
32198;SDS011;73953;42.656;21.156;2024-01-30T09:57:36;42.53;;;21.02;;
32198;SDS011;73953;42.656;21.156;2024-01-30T10:00:05;16.77;;;10.95;;
32198;SDS011;73953;42.656;21.156;2024-01-30T10:02:36;13.75;;;7.00;;
32198;SDS011;73953;42.656;21.156;2024-01-30T10:05:03;14.45;;;7.82;;
32198;SDS011;73953;42.656;21.156;2024-01-30T10:07:30;14.85;;;8.98;;
32198;SDS011;73953;42.656;21.156;2024-01-30T10:09:57;11.27;;;7.72;;
32198;SDS011;73953;42.656;21.156;2024-01-30T10:12:29;16.00;;;9.43;;
32198;SDS011;73953;42.656;21.156;2024-01-30T10:14:56;14.52;;;7.65;;
32198;SDS011;73953;42.656;21.156;2024-01-30T10:17:24;23.58;;;12.18;;
32198;SDS011;73953;42.656;21.156;2024-01-30T10:19:59;16.15;;;9.20;;
32198;SDS011;73953;42.656;21.156;2024-01-30T10:22:28;16.75;;;9.73;;
32198;SDS011;73953;42.656;21.156;2024-01-30T10:24:55;21.60;;;12.98;;
32198;SDS011;73953;42.656;21.156;2024-01-30T10:27:25;14.02;;;8.25;;
32198;SDS011;73953;42.656;21.156;2024-01-30T10:29:53;15.15;;;9.10;;
32198;SDS011;73953;42.656;21.156;2024-01-30T10:32:20;17.40;;;9.93;;
32198;SDS011;73953;42.656;21.156;2024-01-30T10:34:47;27.10;;;15.93;;
32198;SDS011;73953;42.656;21.156;2024-01-30T10:37:15;17.90;;;10.55;;
32198;SDS011;73953;42.656;21.156;2024-01-30T10:39:44;14.95;;;9.43;;
32198;SDS011;73953;42.656;21.156;2024-01-30T10:42:12;19.75;;;12.05;;
32198;SDS011;73953;42.656;21.156;2024-01-30T10:47:17;12.85;;;9.57;;
32198;SDS011;73953;42.656;21.156;2024-01-30T10:49:45;15.98;;;8.75;;
32198;SDS011;73953;42.656;21.156;2024-01-30T10:52:13;15.52;;;8.13;;
32198;SDS011;73953;42.656;21.156;2024-01-30T10:54:41;11.15;;;7.32;;
32198;SDS011;73953;42.656;21.156;2024-01-30T10:57:11;19.60;;;10.80;;
32198;SDS011;73953;42.656;21.156;2024-01-30T10:59:39;14.73;;;8.90;;
32198;SDS011;73953;42.656;21.156;2024-01-30T11:02:06;18.50;;;10.43;;
32198;SDS011;73953;42.656;21.156;2024-01-30T11:04:35;12.13;;;7.93;;
32198;SDS011;73953;42.656;21.156;2024-01-30T11:07:03;10.57;;;6.65;;
32198;SDS011;73953;42.656;21.156;2024-01-30T11:09:31;18.52;;;9.30;;
32198;SDS011;73953;42.656;21.156;2024-01-30T11:12:05;22.58;;;11.85;;
32198;SDS011;73953;42.656;21.156;2024-01-30T11:14:32;18.27;;;10.02;;
32198;SDS011;73953;42.656;21.156;2024-01-30T11:17:00;14.77;;;8.40;;
32198;SDS011;73953;42.656;21.156;2024-01-30T11:19:27;17.15;;;9.82;;
32198;SDS011;73953;42.656;21.156;2024-01-30T11:21:55;10.05;;;6.40;;
32198;SDS011;73953;42.656;21.156;2024-01-30T11:24:24;15.50;;;8.75;;
32198;SDS011;73953;42.656;21.156;2024-01-30T11:26:57;12.68;;;8.13;;
32198;SDS011;73953;42.656;21.156;2024-01-30T11:29:25;15.68;;;10.05;;
32198;SDS011;73953;42.656;21.156;2024-01-30T11:31:53;15.35;;;7.75;;
32198;SDS011;73953;42.656;21.156;2024-01-30T11:34:21;13.73;;;8.10;;
32198;SDS011;73953;42.656;21.156;2024-01-30T11:36:52;13.57;;;8.50;;
32198;SDS011;73953;42.656;21.156;2024-01-30T11:39:22;10.48;;;6.78;;
32198;SDS011;73953;42.656;21.156;2024-01-30T11:41:50;13.88;;;9.05;;
32198;SDS011;73953;42.656;21.156;2024-01-30T11:44:18;14.02;;;8.27;;
32198;SDS011;73953;42.656;21.156;2024-01-30T11:46:45;12.70;;;9.15;;
32198;SDS011;73953;42.656;21.156;2024-01-30T11:49:12;17.25;;;9.68;;
32198;SDS011;73953;42.656;21.156;2024-01-30T11:51:39;15.27;;;8.23;;
32198;SDS011;73953;42.656;21.156;2024-01-30T11:54:07;12.73;;;9.10;;
32198;SDS011;73953;42.656;21.156;2024-01-30T11:56:34;22.15;;;13.07;;
32198;SDS011;73953;42.656;21.156;2024-01-30T11:59:01;27.63;;;12.50;;
32198;SDS011;73953;42.656;21.156;2024-01-30T12:01:28;11.73;;;7.80;;
32198;SDS011;73953;42.656;21.156;2024-01-30T12:03:59;10.93;;;7.27;;
32198;SDS011;73953;42.656;21.156;2024-01-30T12:06:27;11.20;;;6.97;;
32198;SDS011;73953;42.656;21.156;2024-01-30T12:08:58;12.73;;;7.18;;
32198;SDS011;73953;42.656;21.156;2024-01-30T12:11:26;12.85;;;7.72;;
32198;SDS011;73953;42.656;21.156;2024-01-30T12:13:54;12.35;;;7.88;;
32198;SDS011;73953;42.656;21.156;2024-01-30T12:16:21;11.65;;;7.70;;
32198;SDS011;73953;42.656;21.156;2024-01-30T12:18:48;16.70;;;9.48;;
32198;SDS011;73953;42.656;21.156;2024-01-30T12:21:17;11.60;;;6.68;;
32198;SDS011;73953;42.656;21.156;2024-01-30T12:23:44;10.38;;;6.55;;
32198;SDS011;73953;42.656;21.156;2024-01-30T12:26:12;11.32;;;7.75;;
32198;SDS011;73953;42.656;21.156;2024-01-30T12:28:47;14.60;;;8.40;;
32198;SDS011;73953;42.656;21.156;2024-01-30T12:31:14;10.82;;;6.50;;
32198;SDS011;73953;42.656;21.156;2024-01-30T12:33:42;13.68;;;8.95;;
32198;SDS011;73953;42.656;21.156;2024-01-30T12:36:09;10.23;;;6.03;;
32198;SDS011;73953;42.656;21.156;2024-01-30T12:38:38;11.43;;;7.45;;
32198;SDS011;73953;42.656;21.156;2024-01-30T12:41:06;11.50;;;7.00;;
32198;SDS011;73953;42.656;21.156;2024-01-30T12:43:33;16.20;;;8.73;;
32198;SDS011;73953;42.656;21.156;2024-01-30T12:46:05;12.07;;;7.10;;
32198;SDS011;73953;42.656;21.156;2024-01-30T12:48:33;11.40;;;7.75;;
32198;SDS011;73953;42.656;21.156;2024-01-30T12:51:00;12.75;;;7.38;;
32198;SDS011;73953;42.656;21.156;2024-01-30T12:53:27;14.07;;;8.23;;
32198;SDS011;73953;42.656;21.156;2024-01-30T12:55:54;17.80;;;9.55;;
32198;SDS011;73953;42.656;21.156;2024-01-30T12:58:21;18.10;;;10.00;;
32198;SDS011;73953;42.656;21.156;2024-01-30T13:00:49;13.32;;;8.48;;
32198;SDS011;73953;42.656;21.156;2024-01-30T13:03:16;12.65;;;8.23;;
32198;SDS011;73953;42.656;21.156;2024-01-30T13:05:43;13.40;;;8.45;;
32198;SDS011;73953;42.656;21.156;2024-01-30T13:08:10;11.98;;;7.65;;
32198;SDS011;73953;42.656;21.156;2024-01-30T13:10:37;14.50;;;9.35;;
32198;SDS011;73953;42.656;21.156;2024-01-30T13:13:07;13.68;;;8.02;;
32198;SDS011;73953;42.656;21.156;2024-01-30T13:15:44;14.13;;;9.00;;
32198;SDS011;73953;42.656;21.156;2024-01-30T13:18:11;14.85;;;10.10;;
32198;SDS011;73953;42.656;21.156;2024-01-30T13:20:39;11.85;;;8.38;;
32198;SDS011;73953;42.656;21.156;2024-01-30T13:23:06;18.58;;;12.05;;
32198;SDS011;73953;42.656;21.156;2024-01-30T13:25:33;11.32;;;7.75;;
32198;SDS011;73953;42.656;21.156;2024-01-30T13:28:00;21.63;;;11.65;;
32198;SDS011;73953;42.656;21.156;2024-01-30T13:30:28;14.73;;;8.75;;
32198;SDS011;73953;42.656;21.156;2024-01-30T13:32:55;13.23;;;7.43;;
32198;SDS011;73953;42.656;21.156;2024-01-30T13:35:22;13.65;;;8.23;;
32198;SDS011;73953;42.656;21.156;2024-01-30T13:37:49;19.25;;;12.07;;
32198;SDS011;73953;42.656;21.156;2024-01-30T13:40:16;23.10;;;12.90;;
32198;SDS011;73953;42.656;21.156;2024-01-30T13:42:43;24.50;;;10.90;;
32198;SDS011;73953;42.656;21.156;2024-01-30T13:45:10;15.63;;;9.63;;
32198;SDS011;73953;42.656;21.156;2024-01-30T13:47:38;21.38;;;11.50;;
32198;SDS011;73953;42.656;21.156;2024-01-30T13:50:05;12.90;;;8.30;;
32198;SDS011;73953;42.656;21.156;2024-01-30T13:52:33;15.40;;;10.60;;
32198;SDS011;73953;42.656;21.156;2024-01-30T13:55:10;17.48;;;11.00;;
32198;SDS011;73953;42.656;21.156;2024-01-30T13:57:37;14.48;;;9.05;;
32198;SDS011;73953;42.656;21.156;2024-01-30T14:00:05;17.83;;;10.15;;
32198;SDS011;73953;42.656;21.156;2024-01-30T14:02:35;12.95;;;8.63;;
32198;SDS011;73953;42.656;21.156;2024-01-30T14:05:02;15.88;;;8.68;;
32198;SDS011;73953;42.656;21.156;2024-01-30T14:07:32;11.20;;;6.97;;
32198;SDS011;73953;42.656;21.156;2024-01-30T14:09:59;12.48;;;8.13;;
32198;SDS011;73953;42.656;21.156;2024-01-30T14:12:27;13.05;;;8.18;;
32198;SDS011;73953;42.656;21.156;2024-01-30T14:14:54;15.15;;;9.98;;
32198;SDS011;73953;42.656;21.156;2024-01-30T14:17:21;25.02;;;13.35;;
32198;SDS011;73953;42.656;21.156;2024-01-30T14:19:48;21.13;;;11.25;;